Search for airport 
image banner adimage banner adimage banner ad
image banner ad

17CA - Doctors Medical Center

Located in San Pablo, United States

ICAO - 17CA, IATA -

Data provided by Airmate  

General information

Coordinates: N37°47'53" W121°14'50"
Elevation is 23 feet MSL.
Magnetic variation is 16° East
View others Airports in California

Operational data

Special qualification required
Current time UTC:
Current local time:
Weather at : KSCK - Stockton Metropolitan ( 11 km )
METAR: KSCK 260755Z AUTO 35007KT 10SM CLR 15/12 A2995 RMK AO2 SLP141 T01500122 402940144
TAF: KSCK 260537Z 2606/2706 32009KT P6SM SKC FM261000 35004KT P6SM BKN250 FM262200 30008KT P6SM SCT250
View NOTAMs / SUP AIP / TFR affecting this airport [VIEW]
Communications frequencies: [VIEW]

Runways:

Airport contact information

Address: San Pablo United States

Satellite view of 17CA